sensor_id;sensor_type;location;lat;lon;timestamp;P1;durP1;ratioP1;P2;durP2;ratioP2
74168;SDS011;62523;53.336;83.690;2022-11-02T00:01:18;21.35;;;17.42;;
74168;SDS011;62523;53.336;83.690;2022-11-02T00:06:30;27.10;;;16.85;;
74168;SDS011;62523;53.336;83.690;2022-11-02T00:11:32;23.42;;;13.68;;
74168;SDS011;62523;53.336;83.690;2022-11-02T00:16:33;28.33;;;16.70;;
74168;SDS011;62523;53.336;83.690;2022-11-02T00:21:39;28.02;;;16.60;;
74168;SDS011;62523;53.336;83.690;2022-11-02T00:26:41;29.35;;;19.02;;
74168;SDS011;62523;53.336;83.690;2022-11-02T00:31:42;43.75;;;23.52;;
74168;SDS011;62523;53.336;83.690;2022-11-02T00:36:43;33.00;;;18.05;;
74168;SDS011;62523;53.336;83.690;2022-11-02T00:41:45;36.28;;;17.20;;
74168;SDS011;62523;53.336;83.690;2022-11-02T00:46:46;21.45;;;11.55;;
74168;SDS011;62523;53.336;83.690;2022-11-02T00:51:47;24.02;;;13.55;;
74168;SDS011;62523;53.336;83.690;2022-11-02T00:56:48;37.78;;;18.15;;
74168;SDS011;62523;53.336;83.690;2022-11-02T01:01:49;25.88;;;15.02;;
74168;SDS011;62523;53.336;83.690;2022-11-02T01:11:52;20.63;;;11.95;;
74168;SDS011;62523;53.336;83.690;2022-11-02T01:16:54;21.15;;;13.65;;
74168;SDS011;62523;53.336;83.690;2022-11-02T01:21:57;17.42;;;12.48;;
74168;SDS011;62523;53.336;83.690;2022-11-02T01:26:58;19.95;;;11.13;;
74168;SDS011;62523;53.336;83.690;2022-11-02T01:31:59;23.17;;;12.52;;
74168;SDS011;62523;53.336;83.690;2022-11-02T01:42:02;26.57;;;13.50;;
74168;SDS011;62523;53.336;83.690;2022-11-02T01:52:14;20.67;;;12.88;;
74168;SDS011;62523;53.336;83.690;2022-11-02T01:57:20;37.38;;;13.57;;
74168;SDS011;62523;53.336;83.690;2022-11-02T02:02:23;22.20;;;13.68;;
74168;SDS011;62523;53.336;83.690;2022-11-02T02:07:26;24.33;;;13.75;;
74168;SDS011;62523;53.336;83.690;2022-11-02T02:12:28;30.17;;;15.52;;
74168;SDS011;62523;53.336;83.690;2022-11-02T02:17:42;41.17;;;17.92;;
74168;SDS011;62523;53.336;83.690;2022-11-02T02:28:19;42.28;;;16.77;;
74168;SDS011;62523;53.336;83.690;2022-11-02T02:33:45;48.25;;;22.00;;
74168;SDS011;62523;53.336;83.690;2022-11-02T02:38:59;52.15;;;29.52;;
74168;SDS011;62523;53.336;83.690;2022-11-02T02:44:13;41.35;;;19.55;;
74168;SDS011;62523;53.336;83.690;2022-11-02T02:49:28;36.95;;;21.13;;
74168;SDS011;62523;53.336;83.690;2022-11-02T02:54:35;37.60;;;22.23;;
74168;SDS011;62523;53.336;83.690;2022-11-02T02:59:40;22.42;;;15.02;;
74168;SDS011;62523;53.336;83.690;2022-11-02T03:04:43;33.47;;;21.20;;
74168;SDS011;62523;53.336;83.690;2022-11-02T03:15:15;33.42;;;18.05;;
74168;SDS011;62523;53.336;83.690;2022-11-02T03:20:56;31.38;;;14.45;;
74168;SDS011;62523;53.336;83.690;2022-11-02T03:26:05;27.58;;;14.48;;
74168;SDS011;62523;53.336;83.690;2022-11-02T03:31:11;34.25;;;17.85;;
74168;SDS011;62523;53.336;83.690;2022-11-02T03:36:47;53.20;;;16.10;;
74168;SDS011;62523;53.336;83.690;2022-11-02T03:41:55;30.85;;;13.38;;
74168;SDS011;62523;53.336;83.690;2022-11-02T03:47:00;22.67;;;11.30;;
74168;SDS011;62523;53.336;83.690;2022-11-02T03:52:04;27.05;;;12.25;;
74168;SDS011;62523;53.336;83.690;2022-11-02T03:57:09;29.35;;;12.27;;
74168;SDS011;62523;53.336;83.690;2022-11-02T04:02:17;20.02;;;11.52;;
74168;SDS011;62523;53.336;83.690;2022-11-02T04:07:24;40.38;;;13.38;;
74168;SDS011;62523;53.336;83.690;2022-11-02T04:12:51;26.33;;;12.48;;
74168;SDS011;62523;53.336;83.690;2022-11-02T04:18:10;47.45;;;13.45;;
74168;SDS011;62523;53.336;83.690;2022-11-02T04:23:30;24.27;;;13.55;;
74168;SDS011;62523;53.336;83.690;2022-11-02T04:28:50;39.20;;;13.85;;
74168;SDS011;62523;53.336;83.690;2022-11-02T04:38:52;48.20;;;27.57;;
74168;SDS011;62523;53.336;83.690;2022-11-02T04:43:54;21.20;;;12.88;;
74168;SDS011;62523;53.336;83.690;2022-11-02T04:48:56;16.88;;;10.77;;
74168;SDS011;62523;53.336;83.690;2022-11-02T04:58:58;16.52;;;9.73;;
74168;SDS011;62523;53.336;83.690;2022-11-02T05:04:00;29.85;;;12.88;;
74168;SDS011;62523;53.336;83.690;2022-11-02T05:14:04;16.90;;;10.27;;
74168;SDS011;62523;53.336;83.690;2022-11-02T05:19:05;28.95;;;10.77;;
74168;SDS011;62523;53.336;83.690;2022-11-02T05:29:08;20.30;;;10.53;;
74168;SDS011;62523;53.336;83.690;2022-11-02T05:39:10;19.70;;;11.68;;
74168;SDS011;62523;53.336;83.690;2022-11-02T05:44:12;22.48;;;9.13;;
74168;SDS011;62523;53.336;83.690;2022-11-02T05:49:13;21.45;;;9.73;;
74168;SDS011;62523;53.336;83.690;2022-11-02T05:59:15;16.83;;;10.23;;
74168;SDS011;62523;53.336;83.690;2022-11-02T06:04:16;30.08;;;12.43;;
74168;SDS011;62523;53.336;83.690;2022-11-02T06:14:19;25.13;;;9.40;;
74168;SDS011;62523;53.336;83.690;2022-11-02T06:24:21;15.20;;;9.57;;
74168;SDS011;62523;53.336;83.690;2022-11-02T06:29:22;20.83;;;9.57;;
74168;SDS011;62523;53.336;83.690;2022-11-02T06:34:24;27.63;;;10.52;;
74168;SDS011;62523;53.336;83.690;2022-11-02T06:39:26;13.48;;;7.05;;
74168;SDS011;62523;53.336;83.690;2022-11-02T06:49:28;26.15;;;7.93;;
74168;SDS011;62523;53.336;83.690;2022-11-02T06:59:31;14.48;;;8.43;;
74168;SDS011;62523;53.336;83.690;2022-11-02T07:04:32;18.50;;;7.95;;
74168;SDS011;62523;53.336;83.690;2022-11-02T07:14:34;14.32;;;8.38;;
74168;SDS011;62523;53.336;83.690;2022-11-02T07:24:36;26.60;;;8.13;;
74168;SDS011;62523;53.336;83.690;2022-11-02T07:29:37;17.90;;;8.35;;
74168;SDS011;62523;53.336;83.690;2022-11-02T07:39:41;19.02;;;8.90;;
74168;SDS011;62523;53.336;83.690;2022-11-02T07:44:42;22.50;;;7.60;;
74168;SDS011;62523;53.336;83.690;2022-11-02T07:49:44;27.30;;;8.60;;
74168;SDS011;62523;53.336;83.690;2022-11-02T07:59:46;17.33;;;7.53;;
74168;SDS011;62523;53.336;83.690;2022-11-02T08:04:48;11.52;;;7.45;;
74168;SDS011;62523;53.336;83.690;2022-11-02T08:09:49;19.63;;;7.35;;
74168;SDS011;62523;53.336;83.690;2022-11-02T08:14:50;13.40;;;8.02;;
74168;SDS011;62523;53.336;83.690;2022-11-02T08:24:53;13.70;;;7.38;;
74168;SDS011;62523;53.336;83.690;2022-11-02T08:29:55;18.98;;;9.02;;
74168;SDS011;62523;53.336;83.690;2022-11-02T08:34:56;18.27;;;7.45;;
74168;SDS011;62523;53.336;83.690;2022-11-02T08:39:58;19.98;;;9.18;;
74168;SDS011;62523;53.336;83.690;2022-11-02T08:44:59;9.27;;;5.88;;
74168;SDS011;62523;53.336;83.690;2022-11-02T08:50:00;11.98;;;6.43;;
74168;SDS011;62523;53.336;83.690;2022-11-02T08:55:01;17.73;;;8.27;;
74168;SDS011;62523;53.336;83.690;2022-11-02T09:00:03;13.82;;;6.90;;
74168;SDS011;62523;53.336;83.690;2022-11-02T09:05:06;20.33;;;7.32;;
74168;SDS011;62523;53.336;83.690;2022-11-02T09:10:07;12.00;;;6.93;;
74168;SDS011;62523;53.336;83.690;2022-11-02T09:15:09;12.63;;;7.35;;
74168;SDS011;62523;53.336;83.690;2022-11-02T09:20:10;15.43;;;6.55;;
74168;SDS011;62523;53.336;83.690;2022-11-02T09:25:12;31.00;;;8.27;;
74168;SDS011;62523;53.336;83.690;2022-11-02T09:30:15;10.70;;;6.68;;
74168;SDS011;62523;53.336;83.690;2022-11-02T09:35:16;22.88;;;8.25;;
74168;SDS011;62523;53.336;83.690;2022-11-02T09:40:22;22.13;;;7.25;;
74168;SDS011;62523;53.336;83.690;2022-11-02T09:45:29;39.95;;;6.88;;
74168;SDS011;62523;53.336;83.690;2022-11-02T09:50:38;31.70;;;7.95;;
74168;SDS011;62523;53.336;83.690;2022-11-02T09:55:48;14.53;;;8.53;;
74168;SDS011;62523;53.336;83.690;2022-11-02T10:00:54;15.65;;;6.53;;
74168;SDS011;62523;53.336;83.690;2022-11-02T10:06:04;26.85;;;9.75;;
74168;SDS011;62523;53.336;83.690;2022-11-02T10:16:36;32.30;;;12.77;;
74168;SDS011;62523;53.336;83.690;2022-11-02T10:21:45;25.35;;;11.25;;
74168;SDS011;62523;53.336;83.690;2022-11-02T10:26:49;22.05;;;11.65;;
74168;SDS011;62523;53.336;83.690;2022-11-02T10:31:56;20.58;;;11.02;;
74168;SDS011;62523;53.336;83.690;2022-11-02T10:47:23;45.05;;;21.25;;
74168;SDS011;62523;53.336;83.690;2022-11-02T10:52:32;42.60;;;21.90;;
74168;SDS011;62523;53.336;83.690;2022-11-02T10:57:37;47.85;;;21.73;;
74168;SDS011;62523;53.336;83.690;2022-11-02T11:02:41;31.55;;;19.08;;
74168;SDS011;62523;53.336;83.690;2022-11-02T11:12:44;23.05;;;14.85;;
74168;SDS011;62523;53.336;83.690;2022-11-02T11:17:46;42.53;;;16.25;;
74168;SDS011;62523;53.336;83.690;2022-11-02T11:22:47;47.72;;;16.67;;
74168;SDS011;62523;53.336;83.690;2022-11-02T11:28:22;26.95;;;16.40;;
74168;SDS011;62523;53.336;83.690;2022-11-02T11:33:26;51.83;;;23.58;;
74168;SDS011;62523;53.336;83.690;2022-11-02T11:38:27;54.05;;;30.98;;
74168;SDS011;62523;53.336;83.690;2022-11-02T11:43:29;82.10;;;28.77;;
74168;SDS011;62523;53.336;83.690;2022-11-02T11:53:40;56.58;;;31.05;;
74168;SDS011;62523;53.336;83.690;2022-11-02T11:59:18;63.78;;;28.75;;
74168;SDS011;62523;53.336;83.690;2022-11-02T12:04:34;60.03;;;29.10;;
74168;SDS011;62523;53.336;83.690;2022-11-02T12:20:40;37.70;;;22.55;;
74168;SDS011;62523;53.336;83.690;2022-11-02T12:26:13;36.70;;;18.92;;
74168;SDS011;62523;53.336;83.690;2022-11-02T12:31:45;34.03;;;17.83;;
74168;SDS011;62523;53.336;83.690;2022-11-02T12:37:13;26.63;;;18.70;;
74168;SDS011;62523;53.336;83.690;2022-11-02T12:42:32;39.78;;;18.90;;
74168;SDS011;62523;53.336;83.690;2022-11-02T12:47:58;37.80;;;18.40;;
74168;SDS011;62523;53.336;83.690;2022-11-02T12:58:36;59.92;;;23.75;;
74168;SDS011;62523;53.336;83.690;2022-11-02T13:03:51;57.55;;;28.67;;
74168;SDS011;62523;53.336;83.690;2022-11-02T13:14:11;29.08;;;18.05;;
74168;SDS011;62523;53.336;83.690;2022-11-02T13:19:23;32.08;;;19.15;;
74168;SDS011;62523;53.336;83.690;2022-11-02T13:24:42;32.85;;;17.38;;
74168;SDS011;62523;53.336;83.690;2022-11-02T13:29:49;22.88;;;11.80;;
74168;SDS011;62523;53.336;83.690;2022-11-02T13:34:52;22.63;;;13.77;;
74168;SDS011;62523;53.336;83.690;2022-11-02T13:39:56;29.50;;;12.75;;
74168;SDS011;62523;53.336;83.690;2022-11-02T13:45:06;11.38;;;8.65;;
74168;SDS011;62523;53.336;83.690;2022-11-02T13:50:14;36.15;;;16.27;;
74168;SDS011;62523;53.336;83.690;2022-11-02T13:55:19;25.25;;;13.95;;
74168;SDS011;62523;53.336;83.690;2022-11-02T14:05:31;22.15;;;12.10;;
74168;SDS011;62523;53.336;83.690;2022-11-02T14:10:36;24.92;;;10.85;;
74168;SDS011;62523;53.336;83.690;2022-11-02T14:15:39;18.50;;;10.25;;
74168;SDS011;62523;53.336;83.690;2022-11-02T14:20:43;36.00;;;13.02;;
74168;SDS011;62523;53.336;83.690;2022-11-02T14:36:04;18.17;;;11.07;;
74168;SDS011;62523;53.336;83.690;2022-11-02T14:41:41;23.00;;;12.35;;
74168;SDS011;62523;53.336;83.690;2022-11-02T14:47:10;21.48;;;11.60;;
74168;SDS011;62523;53.336;83.690;2022-11-02T14:52:30;22.17;;;14.02;;
74168;SDS011;62523;53.336;83.690;2022-11-02T14:57:35;28.40;;;13.13;;
74168;SDS011;62523;53.336;83.690;2022-11-02T15:02:40;28.67;;;13.23;;
74168;SDS011;62523;53.336;83.690;2022-11-02T15:07:46;22.65;;;10.85;;
74168;SDS011;62523;53.336;83.690;2022-11-02T15:12:55;44.50;;;24.98;;
74168;SDS011;62523;53.336;83.690;2022-11-02T15:23:31;20.30;;;12.63;;
74168;SDS011;62523;53.336;83.690;2022-11-02T15:28:45;24.90;;;12.82;;
74168;SDS011;62523;53.336;83.690;2022-11-02T15:33:51;34.70;;;14.32;;
74168;SDS011;62523;53.336;83.690;2022-11-02T15:38:56;16.20;;;9.75;;
74168;SDS011;62523;53.336;83.690;2022-11-02T16:05:32;20.70;;;10.02;;
74168;SDS011;62523;53.336;83.690;2022-11-02T16:10:45;10.65;;;7.78;;
74168;SDS011;62523;53.336;83.690;2022-11-02T16:15:48;12.05;;;9.18;;
74168;SDS011;62523;53.336;83.690;2022-11-02T16:20:49;21.67;;;9.75;;
74168;SDS011;62523;53.336;83.690;2022-11-02T16:25:51;15.75;;;9.55;;
74168;SDS011;62523;53.336;83.690;2022-11-02T16:36:16;17.92;;;10.65;;
74168;SDS011;62523;53.336;83.690;2022-11-02T16:41:20;21.80;;;12.20;;
74168;SDS011;62523;53.336;83.690;2022-11-02T16:46:39;18.38;;;13.40;;
74168;SDS011;62523;53.336;83.690;2022-11-02T16:51:49;17.63;;;9.55;;
74168;SDS011;62523;53.336;83.690;2022-11-02T16:56:53;14.47;;;8.40;;
74168;SDS011;62523;53.336;83.690;2022-11-02T17:02:04;10.85;;;8.57;;
74168;SDS011;62523;53.336;83.690;2022-11-02T17:07:21;14.27;;;9.15;;
74168;SDS011;62523;53.336;83.690;2022-11-02T17:17:38;24.83;;;10.15;;
74168;SDS011;62523;53.336;83.690;2022-11-02T17:28:01;13.02;;;8.30;;
74168;SDS011;62523;53.336;83.690;2022-11-02T17:33:27;13.35;;;9.30;;
74168;SDS011;62523;53.336;83.690;2022-11-02T17:38:31;13.48;;;9.60;;
74168;SDS011;62523;53.336;83.690;2022-11-02T17:43:33;15.05;;;10.77;;
74168;SDS011;62523;53.336;83.690;2022-11-02T17:48:34;15.80;;;10.18;;
74168;SDS011;62523;53.336;83.690;2022-11-02T17:58:37;13.90;;;8.33;;
74168;SDS011;62523;53.336;83.690;2022-11-02T18:03:38;19.52;;;9.30;;
74168;SDS011;62523;53.336;83.690;2022-11-02T18:08:39;20.30;;;9.45;;
74168;SDS011;62523;53.336;83.690;2022-11-02T18:13:59;12.45;;;8.75;;
74168;SDS011;62523;53.336;83.690;2022-11-02T18:19:00;17.67;;;10.20;;
74168;SDS011;62523;53.336;83.690;2022-11-02T18:24:03;23.13;;;13.85;;
74168;SDS011;62523;53.336;83.690;2022-11-02T18:29:05;15.40;;;10.25;;
74168;SDS011;62523;53.336;83.690;2022-11-02T18:34:08;15.82;;;9.73;;
74168;SDS011;62523;53.336;83.690;2022-11-02T18:39:09;15.73;;;10.93;;
74168;SDS011;62523;53.336;83.690;2022-11-02T18:49:13;21.15;;;10.70;;
74168;SDS011;62523;53.336;83.690;2022-11-02T18:59:16;22.98;;;12.32;;
74168;SDS011;62523;53.336;83.690;2022-11-02T19:09:19;38.27;;;12.57;;
74168;SDS011;62523;53.336;83.690;2022-11-02T19:14:22;19.67;;;11.32;;
74168;SDS011;62523;53.336;83.690;2022-11-02T19:19:24;13.65;;;9.38;;
74168;SDS011;62523;53.336;83.690;2022-11-02T19:24:26;25.40;;;12.40;;
74168;SDS011;62523;53.336;83.690;2022-11-02T19:34:28;21.40;;;11.53;;
74168;SDS011;62523;53.336;83.690;2022-11-02T19:39:30;18.38;;;10.88;;
74168;SDS011;62523;53.336;83.690;2022-11-02T19:44:31;16.52;;;10.18;;
74168;SDS011;62523;53.336;83.690;2022-11-02T19:54:34;20.47;;;11.93;;
74168;SDS011;62523;53.336;83.690;2022-11-02T19:59:35;26.35;;;14.98;;
74168;SDS011;62523;53.336;83.690;2022-11-02T20:04:36;18.90;;;12.15;;
74168;SDS011;62523;53.336;83.690;2022-11-02T20:09:37;18.92;;;11.63;;
74168;SDS011;62523;53.336;83.690;2022-11-02T20:14:38;26.17;;;11.63;;
74168;SDS011;62523;53.336;83.690;2022-11-02T20:19:40;20.90;;;10.30;;
74168;SDS011;62523;53.336;83.690;2022-11-02T20:24:42;28.88;;;12.10;;
74168;SDS011;62523;53.336;83.690;2022-11-02T20:34:45;19.25;;;8.93;;
74168;SDS011;62523;53.336;83.690;2022-11-02T20:39:47;20.35;;;11.07;;
74168;SDS011;62523;53.336;83.690;2022-11-02T20:44:49;23.30;;;10.98;;
74168;SDS011;62523;53.336;83.690;2022-11-02T20:49:50;13.77;;;8.75;;
74168;SDS011;62523;53.336;83.690;2022-11-02T20:54:51;18.25;;;9.00;;
74168;SDS011;62523;53.336;83.690;2022-11-02T20:59:53;12.52;;;7.47;;
74168;SDS011;62523;53.336;83.690;2022-11-02T21:04:54;12.18;;;6.90;;
74168;SDS011;62523;53.336;83.690;2022-11-02T21:14:57;19.00;;;7.20;;
74168;SDS011;62523;53.336;83.690;2022-11-02T21:19:59;14.45;;;6.93;;
74168;SDS011;62523;53.336;83.690;2022-11-02T21:25:01;9.73;;;5.15;;
74168;SDS011;62523;53.336;83.690;2022-11-02T21:30:02;8.90;;;6.05;;
74168;SDS011;62523;53.336;83.690;2022-11-02T21:35:04;8.23;;;5.93;;
74168;SDS011;62523;53.336;83.690;2022-11-02T21:40:06;7.18;;;5.53;;
74168;SDS011;62523;53.336;83.690;2022-11-02T21:45:08;7.60;;;5.90;;
74168;SDS011;62523;53.336;83.690;2022-11-02T21:50:10;7.30;;;5.13;;
74168;SDS011;62523;53.336;83.690;2022-11-02T21:55:11;6.88;;;4.20;;
74168;SDS011;62523;53.336;83.690;2022-11-02T22:00:13;6.82;;;4.22;;
74168;SDS011;62523;53.336;83.690;2022-11-02T22:05:15;7.22;;;4.80;;
74168;SDS011;62523;53.336;83.690;2022-11-02T22:10:36;6.35;;;5.05;;
74168;SDS011;62523;53.336;83.690;2022-11-02T22:20:38;5.40;;;3.70;;
74168;SDS011;62523;53.336;83.690;2022-11-02T22:25:39;7.85;;;4.75;;
74168;SDS011;62523;53.336;83.690;2022-11-02T22:30:40;6.88;;;4.05;;
74168;SDS011;62523;53.336;83.690;2022-11-02T22:35:42;5.88;;;4.32;;
74168;SDS011;62523;53.336;83.690;2022-11-02T22:45:44;4.40;;;4.00;;
74168;SDS011;62523;53.336;83.690;2022-11-02T22:50:45;8.00;;;4.63;;
74168;SDS011;62523;53.336;83.690;2022-11-02T22:55:54;5.25;;;4.70;;
74168;SDS011;62523;53.336;83.690;2022-11-02T23:00:57;8.32;;;4.68;;
74168;SDS011;62523;53.336;83.690;2022-11-02T23:05:59;5.38;;;3.85;;
74168;SDS011;62523;53.336;83.690;2022-11-02T23:11:01;5.95;;;4.43;;
74168;SDS011;62523;53.336;83.690;2022-11-02T23:16:23;5.97;;;4.38;;
74168;SDS011;62523;53.336;83.690;2022-11-02T23:21:25;10.98;;;5.70;;
74168;SDS011;62523;53.336;83.690;2022-11-02T23:26:26;7.50;;;4.47;;
74168;SDS011;62523;53.336;83.690;2022-11-02T23:31:27;35.90;;;23.17;;
74168;SDS011;62523;53.336;83.690;2022-11-02T23:36:47;19.13;;;12.32;;
74168;SDS011;62523;53.336;83.690;2022-11-02T23:41:48;38.17;;;21.83;;
74168;SDS011;62523;53.336;83.690;2022-11-02T23:46:50;6.95;;;5.20;;
74168;SDS011;62523;53.336;83.690;2022-11-02T23:51:51;7.43;;;5.70;;
74168;SDS011;62523;53.336;83.690;2022-11-02T23:57:10;6.47;;;4.95;;
